LavenderCAM.net
Leatherhead Weather
 
 





Member of StrikeStar EU

Aviation weather for

London Heathrow (EGLL) and London Gatwick (EGKK)



London Heathrow (EGLL) METAR / Surface Actual
London / Heathrow Airport, United Kingdom (EGLL) 51-29N 000-27W 0M
Sep 24, 2018 - 06:20 PM EDT / 2018.09.24 2220 UTC
Wind: from the N (360 degrees) at 1 MPH (1 KT):0
Visibility: greater than 7 mile(s):0
Temperature: 46 F (8 C)
Dew Point: 39 F (4 C)
Relative Humidity: 75%
Pressure (altimeter): 30.68 in. Hg (1039 hPa)
ob: EGLL 242220Z AUTO 36001KT 9999 NCD 08/04 Q1039 NOSIG
cycle: 22
London Heathrow (EGLL) TAF / Forecast
2018/09/24 18:15
TAF EGLL 241655Z 2418/2524 36005KT 9999 FEW040 PROB30 2502/2508 7000


London Gatwick (EGKK) METAR / Surface Actual
London / Gatwick Airport, United Kingdom (EGKK) 51-09N 000-11W 0M
Sep 24, 2018 - 06:20 PM EDT / 2018.09.24 2220 UTC
Wind: from the WSW (240 degrees) at 1 MPH (1 KT):0
Visibility: greater than 7 mile(s):0
Temperature: 42 F (6 C)
Dew Point: 41 F (5 C)
Relative Humidity: 93%
Pressure (altimeter): 30.68 in. Hg (1039 hPa)
ob: EGKK 242220Z 24001KT CAVOK 06/05 Q1039
cycle: 22
London Gatwick (EGKK) TAF / Forecast
2018/09/24 18:15
TAF EGKK 241655Z 2418/2524 VRB04KT 9999 FEW040 PROB30 2500/2508 6000 
      BECMG 2508/2511 17010KT